Time;durP1;ratioP1;P1;durP2;ratioP2;P2;SDS_P1;SDS_P2;PMS_P1;PMS_P2;Temp;Humidity;BMP_temperature;BMP_pressure;BME280_temperature;BME280_humidity;BME280_pressure;Samples;Min_cycle;Max_cycle;Signal;HPM_P1;HPM_P2
2021/07/01 00:00:26;;;;;;;14.60;6.60;;;18.00;85.50;;;;;;5115390;27;20478;-73
2021/07/01 00:02:51;;;;;;;14.05;6.68;;;18.00;85.50;;;;;;5130369;27;20050;-73
2021/07/01 00:05:17;;;;;;;14.05;6.82;;;18.00;85.80;;;;;;5137252;27;20490;-72
2021/07/01 00:07:45;;;;;;;15.85;6.90;;;18.00;85.80;;;;;;5123730;27;20554;-73
2021/07/01 00:10:15;;;;;;;18.75;6.88;;;18.00;85.90;;;;;;5129261;27;20043;-72
2021/07/01 00:12:40;;;;;;;14.48;6.95;;;17.90;86.10;;;;;;5126449;27;20497;-72
2021/07/01 00:15:09;;;;;;;13.30;6.45;;;17.90;85.60;;;;;;5120636;27;20051;-72
2021/07/01 00:17:35;;;;;;;17.33;7.40;;;17.90;85.50;;;;;;5127280;27;20042;-72
2021/07/01 00:20:05;;;;;;;15.52;6.40;;;17.90;85.80;;;;;;5115228;27;20486;-73
2021/07/01 00:22:31;;;;;;;18.88;6.28;;;17.90;85.20;;;;;;5115057;28;20094;-73
2021/07/01 00:24:57;;;;;;;13.82;5.93;;;17.90;85.10;;;;;;5118239;27;20063;-72
2021/07/01 00:27:22;;;;;;;14.10;5.65;;;17.90;85.20;;;;;;5121686;27;20027;-72
2021/07/01 00:29:48;;;;;;;12.15;6.82;;;17.80;85.30;;;;;;5130268;27;20523;-73
2021/07/01 00:32:13;;;;;;;10.93;6.50;;;17.80;85.30;;;;;;5126414;27;20031;-72
2021/07/01 00:34:39;;;;;;;16.83;7.13;;;17.90;85.20;;;;;;5114327;28;20131;-72
2021/07/01 00:37:08;;;;;;;14.20;6.15;;;17.80;85.20;;;;;;5114632;27;20020;-72
2021/07/01 00:39:33;;;;;;;12.40;6.20;;;17.80;85.30;;;;;;5121414;27;20160;-72
2021/07/01 00:41:59;;;;;;;15.73;6.55;;;17.80;85.10;;;;;;5122157;27;20118;-72
2021/07/01 00:44:24;;;;;;;16.75;6.43;;;17.80;84.70;;;;;;5125190;27;20039;-72
2021/07/01 00:46:51;;;;;;;13.18;6.93;;;17.70;84.40;;;;;;5118936;27;20038;-72
2021/07/01 00:49:16;;;;;;;17.75;6.82;;;17.70;84.30;;;;;;5117391;27;20031;-72
2021/07/01 00:51:43;;;;;;;16.67;6.70;;;17.70;83.90;;;;;;5115196;27;20379;-73
2021/07/01 00:54:09;;;;;;;23.13;8.60;;;17.70;83.70;;;;;;5114154;27;20043;-72
2021/07/01 00:56:38;;;;;;;17.02;6.40;;;17.60;84.20;;;;;;5100894;28;20019;-72
2021/07/01 00:59:07;;;;;;;19.25;6.88;;;17.70;84.20;;;;;;5121596;27;20031;-72
2021/07/01 01:01:34;;;;;;;15.85;6.78;;;17.60;83.80;;;;;;5099496;28;20024;-72
2021/07/01 01:04:01;;;;;;;21.02;6.88;;;17.60;83.90;;;;;;5096029;28;20024;-72
2021/07/01 01:06:28;;;;;;;14.40;4.88;;;17.60;83.80;;;;;;5097042;27;20027;-72
2021/07/01 01:08:55;;;;;;;16.25;6.40;;;17.60;83.60;;;;;;5114941;28;20479;-72
2021/07/01 01:11:26;;;;;;;15.27;6.82;;;17.60;83.60;;;;;;5115711;27;20066;-73
2021/07/01 01:14:13;;;;;;;17.45;6.70;;;17.60;84.10;;;;;;5105081;28;20062;-72
2021/07/01 01:17:05;;;;;;;18.10;7.80;;;17.50;83.80;;;;;;5110743;28;20027;-72
2021/07/01 01:19:35;;;;;;;18.70;8.60;;;17.60;84.00;;;;;;5113747;28;20031;-72
2021/07/01 01:22:01;;;;;;;21.10;8.93;;;17.50;84.20;;;;;;5116731;27;20025;-72
2021/07/01 01:24:33;;;;;;;20.08;8.60;;;17.50;85.20;;;;;;5095210;28;20390;-72
2021/07/01 01:26:59;;;;;;;14.30;7.57;;;17.60;85.30;;;;;;5116247;27;20024;-71
2021/07/01 01:29:25;;;;;;;18.98;7.68;;;17.60;85.00;;;;;;5117081;27;20032;-72
2021/07/01 01:31:53;;;;;;;24.70;8.73;;;17.50;84.80;;;;;;5113472;28;20028;-72
2021/07/01 01:34:18;;;;;;;15.18;7.57;;;17.50;84.80;;;;;;5114241;28;20036;-72
2021/07/01 01:36:44;;;;;;;15.68;6.95;;;17.50;84.50;;;;;;5112920;27;20424;-72
2021/07/01 01:39:10;;;;;;;16.80;7.75;;;17.50;84.50;;;;;;5101670;27;20114;-72
2021/07/01 01:41:51;;;;;;;21.67;9.07;;;17.50;84.60;;;;;;5115181;27;20497;-71
2021/07/01 01:44:17;;;;;;;23.60;9.57;;;17.50;85.10;;;;;;5099098;28;20020;-72
2021/07/01 01:46:43;;;;;;;19.95;9.27;;;17.50;85.90;;;;;;5096990;28;20019;-72
2021/07/01 01:49:09;;;;;;;25.00;10.48;;;17.50;86.10;;;;;;5095608;28;20020;-72
2021/07/01 01:51:37;;;;;;;30.40;10.70;;;17.50;86.60;;;;;;5112596;28;20024;-71
2021/07/01 01:54:09;;;;;;;29.02;8.32;;;17.60;87.00;;;;;;5113604;27;20032;-72
2021/07/01 01:56:45;;;;;;;23.95;9.07;;;17.60;86.70;;;;;;5091679;28;20031;-72
2021/07/01 01:59:15;;;;;;;17.55;8.43;;;17.60;86.70;;;;;;5097749;27;20456;-72
2021/07/01 02:01:59;;;;;;;20.15;8.10;;;17.60;86.40;;;;;;5113493;28;20043;-72
2021/07/01 02:04:35;;;;;;;19.48;9.35;;;17.60;86.20;;;;;;5094075;28;20062;-72
2021/07/01 02:07:00;;;;;;;15.63;8.50;;;17.60;87.10;;;;;;5119627;27;20051;-72
2021/07/01 02:09:40;;;;;;;20.25;9.43;;;17.50;87.10;;;;;;5098450;28;20433;-72
2021/07/01 02:12:06;;;;;;;16.90;8.30;;;17.60;87.20;;;;;;5114901;27;20032;-72
2021/07/01 02:14:32;;;;;;;20.38;8.60;;;17.60;86.60;;;;;;5113696;27;20051;-72
2021/07/01 02:17:21;;;;;;;15.35;8.80;;;17.50;86.20;;;;;;5105650;27;20039;-72
2021/07/01 02:19:48;;;;;;;18.48;9.43;;;17.60;86.30;;;;;;5098901;27;20027;-72
2021/07/01 02:22:14;;;;;;;16.88;8.15;;;17.60;86.10;;;;;;5094187;28;20024;-72
2021/07/01 02:24:43;;;;;;;23.13;9.57;;;17.50;86.00;;;;;;5095498;28;20023;-72
2021/07/01 02:27:11;;;;;;;17.27;7.22;;;17.60;86.10;;;;;;5094120;28;20098;-73
2021/07/01 02:29:38;;;;;;;17.13;7.85;;;17.50;85.70;;;;;;5113543;28;20028;-73
2021/07/01 02:32:08;;;;;;;19.15;8.98;;;17.50;85.90;;;;;;5103486;27;20375;-72
2021/07/01 02:34:40;;;;;;;21.35;8.32;;;17.60;86.70;;;;;;5097198;28;20371;-72
2021/07/01 02:37:29;;;;;;;18.05;7.70;;;17.60;87.10;;;;;;5062107;28;20039;-72
2021/07/01 02:40:15;;;;;;;18.38;8.88;;;17.60;86.70;;;;;;5092021;28;20081;-72
2021/07/01 02:42:57;;;;;;;22.15;9.30;;;17.60;86.50;;;;;;5083469;28;20061;-72
2021/07/01 02:45:24;;;;;;;25.35;9.85;;;17.60;86.90;;;;;;5094112;28;20128;-72
2021/07/01 02:48:13;;;;;;;18.65;8.70;;;17.60;87.50;;;;;;5090158;28;20044;-72
2021/07/01 02:50:44;;;;;;;28.20;10.68;;;17.50;87.60;;;;;;5111961;28;20061;-72
2021/07/01 02:53:11;;;;;;;25.50;9.88;;;17.60;87.40;;;;;;5112279;28;20036;-72
2021/07/01 02:55:38;;;;;;;23.42;10.57;;;17.60;87.40;;;;;;5091910;28;20054;-72
2021/07/01 02:58:04;;;;;;;21.65;9.25;;;17.60;87.80;;;;;;5089325;28;20124;-72
2021/07/01 03:00:34;;;;;;;20.20;8.07;;;17.60;88.30;;;;;;5094402;28;20027;-72
2021/07/01 03:03:01;;;;;;;23.15;10.07;;;17.60;88.00;;;;;;5094537;27;20390;-72
2021/07/01 03:05:47;;;;;;;26.08;9.88;;;17.60;88.20;;;;;;5110668;28;20069;-72
2021/07/01 03:08:13;;;;;;;24.38;9.15;;;17.60;88.50;;;;;;5094038;28;20106;-72
2021/07/01 03:10:46;;;;;;;25.58;10.43;;;17.60;88.50;;;;;;5107118;28;20467;-72
2021/07/01 03:13:14;;;;;;;25.42;10.63;;;17.60;88.00;;;;;;5113627;28;20040;-72
2021/07/01 03:15:41;;;;;;;32.00;11.35;;;17.60;88.20;;;;;;5092914;28;20463;-72
2021/07/01 03:18:09;;;;;;;25.70;10.57;;;17.70;88.70;;;;;;5093431;28;20028;-72
2021/07/01 03:20:55;;;;;;;23.42;10.18;;;17.60;88.50;;;;;;5114049;28;20038;-71
2021/07/01 03:23:39;;;;;;;28.33;11.35;;;17.70;87.50;;;;;;5118250;28;20024;-72
2021/07/01 03:26:05;;;;;;;19.70;9.85;;;17.60;87.10;;;;;;5094158;28;20104;-72
2021/07/01 03:28:31;;;;;;;31.98;12.40;;;17.60;87.20;;;;;;5102712;28;20478;-72
2021/07/01 03:30:57;;;;;;;25.75;9.15;;;17.60;87.00;;;;;;5101591;28;20034;-72
2021/07/01 03:33:23;;;;;;;22.10;10.13;;;17.60;87.40;;;;;;5091559;28;20039;-72
2021/07/01 03:35:49;;;;;;;24.48;11.07;;;17.70;87.80;;;;;;5094878;28;20024;-72
2021/07/01 03:38:36;;;;;;;33.75;11.55;;;17.70;87.80;;;;;;5111670;28;20066;-72
2021/07/01 03:41:13;;;;;;;22.48;10.68;;;17.70;88.30;;;;;;5094717;28;20108;-72
2021/07/01 03:43:42;;;;;;;28.88;11.00;;;17.70;89.00;;;;;;5095498;28;20462;-72
2021/07/01 03:46:08;;;;;;;21.80;9.13;;;17.70;89.40;;;;;;5092944;28;20490;-72
2021/07/01 03:48:35;;;;;;;26.02;11.57;;;17.70;89.00;;;;;;5112336;28;20027;-72
2021/07/01 03:51:19;;;;;;;31.42;9.70;;;17.70;89.00;;;;;;5111165;28;20402;-72
2021/07/01 03:53:56;;;;;;;27.45;8.30;;;17.70;88.00;;;;;;5082816;28;20116;-68
2021/07/01 03:56:25;;;;;;;21.92;8.80;;;17.70;88.00;;;;;;5109606;28;20176;-68
2021/07/01 03:58:52;;;;;;;26.83;12.00;;;17.70;87.90;;;;;;5112089;28;20410;-69
2021/07/01 04:01:41;;;;;;;26.17;9.63;;;17.70;88.10;;;;;;5110475;28;20034;-68
2021/07/01 04:04:08;;;;;;;30.95;11.68;;;17.70;88.30;;;;;;5093847;28;20035;-74
2021/07/01 04:06:35;;;;;;;33.55;12.45;;;17.80;88.60;;;;;;5092993;28;20027;-68
2021/07/01 04:09:03;;;;;;;32.28;11.35;;;17.80;89.30;;;;;;5096628;28;20049;-68
2021/07/01 04:11:30;;;;;;;37.33;10.95;;;17.80;90.00;;;;;;5101906;28;20020;-68
2021/07/01 04:13:56;;;;;;;32.05;11.60;;;17.80;90.00;;;;;;5094637;28;20047;-68
2021/07/01 04:16:54;;;;;;;38.22;11.05;;;17.80;90.20;;;;;;5053931;28;20028;-72
2021/07/01 04:19:38;;;;;;;29.05;10.70;;;17.80;90.40;;;;;;5115749;28;20046;-72
2021/07/01 04:22:29;;;;;;;33.38;11.07;;;17.90;90.70;;;;;;5114585;28;20023;-72
2021/07/01 04:25:15;;;;;;;25.55;10.55;;;17.90;90.90;;;;;;5068859;28;20439;-72
2021/07/01 04:27:44;;;;;;;27.45;11.23;;;17.90;91.00;;;;;;5093496;28;20024;-72
2021/07/01 04:30:13;;;;;;;27.83;9.18;;;17.90;91.00;;;;;;5101645;27;20022;-72
2021/07/01 04:32:59;;;;;;;36.08;12.98;;;17.90;91.10;;;;;;5114073;28;20085;-71
2021/07/01 04:35:28;;;;;;;24.38;11.32;;;17.90;91.10;;;;;;5114532;28;20031;-72
2021/07/01 04:37:53;;;;;;;27.23;10.63;;;17.90;91.10;;;;;;5104095;27;20540;-72
2021/07/01 04:40:20;;;;;;;26.42;10.85;;;17.90;91.20;;;;;;5118933;27;20102;-72
2021/07/01 04:42:46;;;;;;;30.60;12.13;;;18.00;91.10;;;;;;5119403;27;20544;-72
2021/07/01 04:45:15;;;;;;;31.67;12.65;;;18.00;91.20;;;;;;5104555;27;20019;-72
2021/07/01 04:47:41;;;;;;;31.60;12.05;;;18.00;91.30;;;;;;5120731;27;20023;-72
2021/07/01 04:50:07;;;;;;;32.55;11.45;;;18.00;91.30;;;;;;5118825;27;20076;-72
2021/07/01 04:52:51;;;;;;;27.17;11.30;;;18.00;91.30;;;;;;5116424;27;20055;-72
2021/07/01 04:55:17;;;;;;;25.15;12.57;;;18.00;91.30;;;;;;5114745;28;20035;-72
2021/07/01 04:58:01;;;;;;;31.67;12.05;;;18.00;91.50;;;;;;5110149;28;20072;-72
2021/07/01 05:00:30;;;;;;;28.98;11.00;;;18.00;91.60;;;;;;5090351;28;20047;-72
2021/07/01 05:03:18;;;;;;;37.83;12.75;;;18.00;91.70;;;;;;5119887;27;20053;-72
2021/07/01 05:05:43;;;;;;;27.27;10.40;;;18.00;91.60;;;;;;5109721;28;20039;-72
2021/07/01 05:08:12;;;;;;;26.88;10.75;;;18.00;91.70;;;;;;5094873;28;20436;-72
2021/07/01 05:10:39;;;;;;;33.58;13.57;;;18.00;91.30;;;;;;5094111;28;20023;-72
2021/07/01 05:13:11;;;;;;;30.88;10.65;;;18.00;91.40;;;;;;5096190;28;20085;-72
2021/07/01 05:15:37;;;;;;;28.98;10.45;;;18.00;91.60;;;;;;5114187;27;20063;-72
2021/07/01 05:18:05;;;;;;;32.22;11.40;;;18.10;91.40;;;;;;5098807;27;20028;-73
2021/07/01 05:20:32;;;;;;;29.20;10.63;;;18.10;91.50;;;;;;5099288;28;20031;-70
2021/07/01 05:23:16;;;;;;;22.33;9.68;;;18.10;91.60;;;;;;5118006;27;20539;-70
2021/07/01 05:26:00;;;;;;;23.60;9.60;;;18.10;91.40;;;;;;5115734;27;20073;-70
2021/07/01 05:28:51;;;;;;;23.25;10.75;;;18.10;91.30;;;;;;5114601;27;20097;-71
2021/07/01 05:31:35;;;;;;;28.40;10.68;;;18.10;90.90;;;;;;5113714;27;20116;-70
2021/07/01 05:34:19;;;;;;;32.70;11.38;;;18.10;90.80;;;;;;5112111;28;20066;-70
2021/07/01 05:36:45;;;;;;;24.05;9.68;;;18.10;90.80;;;;;;5098540;28;20019;-68
2021/07/01 05:39:15;;;;;;;32.83;11.65;;;18.10;90.80;;;;;;5096488;27;20028;-69
2021/07/01 05:41:43;;;;;;;39.17;12.68;;;18.10;90.80;;;;;;5118864;27;20024;-69
2021/07/01 05:44:12;;;;;;;24.80;11.20;;;18.10;91.00;;;;;;5120099;27;20051;-69
2021/07/01 05:46:49;;;;;;;23.33;11.48;;;18.10;91.00;;;;;;5114880;27;20376;-69
2021/07/01 05:49:15;;;;;;;28.35;12.30;;;18.20;91.00;;;;;;5117419;27;20034;-69
2021/07/01 05:51:41;;;;;;;44.13;13.20;;;18.20;91.00;;;;;;5115884;27;20068;-68
2021/07/01 05:56:45;;;;;;;30.75;12.07;;;18.20;91.10;;;;;;5085243;28;20028;-69
2021/07/01 05:59:10;;;;;;;26.48;11.45;;;18.20;90.90;;;;;;5112368;28;20031;-69
2021/07/01 06:01:37;;;;;;;40.42;13.10;;;18.20;90.80;;;;;;5113317;28;20450;-68
2021/07/01 06:04:07;;;;;;;32.58;12.02;;;18.20;90.80;;;;;;5097385;28;20024;-68
2021/07/01 06:06:53;;;;;;;26.08;12.52;;;18.20;90.70;;;;;;5112244;27;20022;-68
2021/07/01 06:09:27;;;;;;;29.58;10.75;;;18.20;90.80;;;;;;5095579;27;20398;-68
2021/07/01 06:11:59;;;;;;;35.13;14.02;;;18.20;90.90;;;;;;5114347;27;20047;-73
2021/07/01 06:14:27;;;;;;;33.70;12.95;;;18.30;91.10;;;;;;5119457;27;20052;-76
2021/07/01 06:16:55;;;;;;;27.27;11.10;;;18.20;91.00;;;;;;5125114;27;20130;-70
2021/07/01 06:19:21;;;;;;;29.67;10.98;;;18.30;90.80;;;;;;5119970;27;20073;-69
2021/07/01 06:21:49;;;;;;;34.15;13.00;;;18.30;90.50;;;;;;5124572;27;20023;-69
2021/07/01 06:24:16;;;;;;;37.13;11.95;;;18.20;91.00;;;;;;5120308;27;20027;-74
2021/07/01 06:26:43;;;;;;;37.22;13.82;;;18.30;91.10;;;;;;5116039;27;20021;-74
2021/07/01 06:29:10;;;;;;;40.25;13.88;;;18.30;91.40;;;;;;5120008;27;20039;-74
2021/07/01 06:31:37;;;;;;;39.20;14.38;;;18.30;91.30;;;;;;5119294;27;20448;-69
2021/07/01 06:34:03;;;;;;;27.48;14.77;;;18.40;91.50;;;;;;5112493;27;20479;-72
2021/07/01 06:36:29;;;;;;;33.17;13.60;;;18.30;91.70;;;;;;5111160;28;20073;-68
2021/07/01 06:39:14;;;;;;;29.48;13.35;;;18.40;92.00;;;;;;5117321;27;20394;-72
2021/07/01 06:42:02;;;;;;;39.05;15.02;;;18.50;91.80;;;;;;5113305;27;20042;-72
2021/07/01 06:44:47;;;;;;;33.78;14.75;;;18.40;92.10;;;;;;5116729;27;20030;-73
2021/07/01 06:47:32;;;;;;;40.30;15.25;;;18.40;92.00;;;;;;5108731;27;20035;-73
2021/07/01 06:50:19;;;;;;;41.55;14.00;;;18.40;92.10;;;;;;5111214;28;20070;-73
2021/07/01 06:53:21;;;;;;;32.92;11.95;;;18.40;92.00;;;;;;5025172;28;20076;-73
2021/07/01 06:56:08;;;;;;;32.03;14.38;;;18.50;91.60;;;;;;5111296;27;20078;-72
2021/07/01 06:58:35;;;;;;;39.97;14.80;;;18.50;91.70;;;;;;5115146;27;20834;-72
2021/07/01 07:01:01;;;;;;;36.63;15.18;;;18.50;91.80;;;;;;5111916;28;20028;-73
2021/07/01 07:03:28;;;;;;;42.58;17.00;;;18.50;91.80;;;;;;5111011;28;20023;-73
2021/07/01 07:05:56;;;;;;;38.13;15.15;;;18.50;92.50;;;;;;5113012;28;20080;-73
2021/07/01 07:08:22;;;;;;;45.85;14.68;;;18.50;92.60;;;;;;5111913;28;20032;-73
2021/07/01 07:10:48;;;;;;;22.08;9.30;;;18.50;92.40;;;;;;5112131;28;20042;-73
2021/07/01 07:13:15;;;;;;;38.22;14.40;;;18.50;92.10;;;;;;5123091;28;20074;-72
2021/07/01 07:15:43;;;;;;;48.38;15.10;;;18.60;92.30;;;;;;5128950;28;20502;-73
2021/07/01 07:18:18;;;;;;;43.78;15.73;;;18.60;92.30;;;;;;5102444;28;20490;-73
2021/07/01 07:20:46;;;;;;;40.20;14.50;;;18.70;92.60;;;;;;5106240;28;20036;-72
2021/07/01 07:23:19;;;;;;;42.92;15.75;;;18.70;92.40;;;;;;5099859;28;20027;-73
2021/07/01 07:25:46;;;;;;;35.92;15.70;;;18.70;92.40;;;;;;5096951;28;20051;-73
2021/07/01 07:28:13;;;;;;;39.15;15.65;;;18.70;92.30;;;;;;5112289;28;20036;-72
2021/07/01 07:30:39;;;;;;;37.40;13.90;;;18.70;92.40;;;;;;5111246;28;20076;-72
2021/07/01 07:33:07;;;;;;;45.97;14.80;;;18.80;92.20;;;;;;5109998;28;20035;-73
2021/07/01 07:35:36;;;;;;;35.00;12.75;;;18.80;92.10;;;;;;5112877;28;20039;-73
2021/07/01 07:38:07;;;;;;;34.97;14.82;;;18.80;91.90;;;;;;5108083;28;20054;-74
2021/07/01 07:40:33;;;;;;;33.55;13.77;;;18.80;92.00;;;;;;5112052;28;20065;-73
2021/07/01 07:43:03;;;;;;;39.10;13.20;;;18.90;92.20;;;;;;5103413;28;20055;-73
2021/07/01 07:45:29;;;;;;;44.05;17.85;;;18.90;92.30;;;;;;5098621;28;20023;-73
2021/07/01 07:47:55;;;;;;;32.58;13.15;;;18.90;92.60;;;;;;5111288;28;20047;-73
2021/07/01 07:50:21;;;;;;;41.58;14.52;;;19.00;92.50;;;;;;5108699;28;20510;-73
2021/07/01 07:52:51;;;;;;;34.47;14.55;;;18.90;92.60;;;;;;5113894;28;20024;-73
2021/07/01 07:55:21;;;;;;;38.38;14.07;;;19.00;92.50;;;;;;5098722;28;20046;-73
2021/07/01 07:57:52;;;;;;;30.67;13.77;;;19.00;92.40;;;;;;5126066;27;20011;-73
2021/07/01 08:00:19;;;;;;;33.90;12.75;;;19.10;92.10;;;;;;5116170;27;20023;-73
2021/07/01 08:02:53;;;;;;;36.08;13.52;;;19.10;92.20;;;;;;5126945;27;20070;-73
2021/07/01 08:05:24;;;;;;;36.97;14.70;;;19.10;91.90;;;;;;5118304;27;20030;-73
2021/07/01 08:07:51;;;;;;;40.15;12.85;;;19.10;92.10;;;;;;5123239;27;20039;-74
2021/07/01 08:10:19;;;;;;;38.08;13.68;;;19.10;92.00;;;;;;5114634;28;20027;-73
2021/07/01 08:12:50;;;;;;;30.63;13.70;;;19.20;91.80;;;;;;5116067;27;20031;-73
2021/07/01 08:15:18;;;;;;;41.45;14.23;;;19.20;92.00;;;;;;5114654;28;20126;-73
2021/07/01 08:17:45;;;;;;;31.88;13.85;;;19.20;92.10;;;;;;5115789;27;20063;-73
2021/07/01 08:20:14;;;;;;;40.38;14.73;;;19.20;92.30;;;;;;5114945;27;20019;-73
2021/07/01 08:22:43;;;;;;;29.42;11.68;;;19.20;92.20;;;;;;5109511;28;20020;-73
2021/07/01 08:25:13;;;;;;;42.72;14.93;;;19.30;92.20;;;;;;5111740;27;20027;-73
2021/07/01 08:27:41;;;;;;;38.95;15.45;;;19.30;92.30;;;;;;5118258;27;20027;-73
2021/07/01 08:30:08;;;;;;;42.50;14.02;;;19.30;92.30;;;;;;5117740;27;20031;-73
2021/07/01 08:32:36;;;;;;;31.95;13.70;;;19.30;92.20;;;;;;5112546;27;20116;-73
2021/07/01 08:35:03;;;;;;;25.48;13.43;;;19.30;92.10;;;;;;5104457;28;20039;-73
2021/07/01 08:37:29;;;;;;;35.60;13.65;;;19.40;92.00;;;;;;5112970;27;20489;-73
2021/07/01 08:39:59;;;;;;;33.30;14.20;;;19.40;92.30;;;;;;5105861;27;20042;-73
2021/07/01 08:42:32;;;;;;;34.70;12.90;;;19.40;92.50;;;;;;5113579;27;20023;-73
2021/07/01 08:45:14;;;;;;;41.95;15.07;;;19.50;92.10;;;;;;5106226;28;20032;-73
2021/07/01 08:47:42;;;;;;;46.08;14.50;;;19.40;92.00;;;;;;5112496;27;20028;-69
2021/07/01 08:50:17;;;;;;;31.40;14.25;;;19.50;92.10;;;;;;5114451;28;20493;-71
2021/07/01 08:52:57;;;;;;;28.95;13.32;;;19.50;92.30;;;;;;5113529;28;20363;-71
2021/07/01 08:55:27;;;;;;;34.58;13.88;;;19.50;92.30;;;;;;5112464;27;20088;-75
2021/07/01 08:57:56;;;;;;;27.25;13.40;;;19.60;92.10;;;;;;5118986;27;20028;-77
2021/07/01 09:00:23;;;;;;;36.58;13.70;;;19.60;91.80;;;;;;5110220;27;20034;-72
2021/07/01 09:03:06;;;;;;;31.77;15.23;;;19.70;91.90;;;;;;5118273;27;20106;-71
2021/07/01 09:05:34;;;;;;;27.83;11.63;;;19.70;91.70;;;;;;5094763;27;20055;-72
2021/07/01 09:08:05;;;;;;;26.13;11.68;;;19.80;91.10;;;;;;5101428;27;20027;-71
2021/07/01 09:10:33;;;;;;;31.38;12.50;;;19.80;91.10;;;;;;5115012;27;20114;-72
2021/07/01 09:13:03;;;;;;;37.58;14.90;;;19.90;91.10;;;;;;5114561;27;20040;-72
2021/07/01 09:15:29;;;;;;;26.40;11.63;;;20.00;91.30;;;;;;5112859;27;20043;-71
2021/07/01 09:17:55;;;;;;;31.73;11.82;;;20.00;91.20;;;;;;5123002;27;20035;-72
2021/07/01 09:20:33;;;;;;;28.40;12.73;;;20.10;91.00;;;;;;5116781;27;20061;-69
2021/07/01 09:22:58;;;;;;;30.55;12.90;;;20.10;91.10;;;;;;5106450;28;20028;-72
2021/07/01 09:25:25;;;;;;;33.22;13.52;;;20.20;91.30;;;;;;5121950;27;20108;-71
2021/07/01 09:27:53;;;;;;;25.77;12.88;;;20.20;91.60;;;;;;5115867;27;20023;-71
2021/07/01 09:30:26;;;;;;;44.72;14.30;;;20.30;91.90;;;;;;5118673;27;20023;-70
2021/07/01 09:33:14;;;;;;;29.92;12.60;;;20.30;91.90;;;;;;5124956;27;20493;-70
2021/07/01 09:35:39;;;;;;;32.60;12.18;;;20.40;91.70;;;;;;5128094;27;20630;-70
2021/07/01 09:38:07;;;;;;;27.80;12.38;;;20.40;91.50;;;;;;5125924;27;20032;-70
2021/07/01 09:40:36;;;;;;;29.25;13.10;;;20.40;91.70;;;;;;5123997;27;20058;-70
2021/07/01 09:43:04;;;;;;;32.30;12.50;;;20.50;91.60;;;;;;5131853;27;20447;-71
2021/07/01 09:45:32;;;;;;;24.20;13.23;;;20.50;91.50;;;;;;5126515;27;20024;-71
2021/07/01 09:48:06;;;;;;;21.33;10.63;;;20.60;91.30;;;;;;5125225;27;20493;-71
2021/07/01 09:50:35;;;;;;;27.50;12.20;;;20.50;91.30;;;;;;5120263;27;20016;-70
2021/07/01 09:53:03;;;;;;;30.33;12.10;;;20.60;91.40;;;;;;5118932;27;20124;-68
2021/07/01 09:55:30;;;;;;;23.50;11.05;;;20.60;91.70;;;;;;5122838;27;20058;-69
2021/07/01 09:58:15;;;;;;;23.98;11.65;;;20.70;91.40;;;;;;5122166;27;20027;-69
2021/07/01 10:00:48;;;;;;;22.08;11.50;;;20.70;91.30;;;;;;5123863;27;20038;-69
2021/07/01 10:03:14;;;;;;;22.33;10.73;;;20.80;91.30;;;;;;5124819;27;20034;-70
2021/07/01 10:05:40;;;;;;;22.08;11.10;;;20.80;91.30;;;;;;5129266;27;20031;-69
2021/07/01 10:08:06;;;;;;;21.27;10.40;;;20.80;91.10;;;;;;5122961;27;20023;-69
2021/07/01 10:10:46;;;;;;;19.25;9.82;;;20.90;91.00;;;;;;5118304;27;20036;-69
2021/07/01 10:13:13;;;;;;;20.95;10.45;;;20.90;90.90;;;;;;5121068;27;20028;-69
2021/07/01 10:15:40;;;;;;;17.08;8.68;;;20.90;90.70;;;;;;5120809;27;20043;-70
2021/07/01 10:18:13;;;;;;;19.75;10.80;;;20.90;90.50;;;;;;5126224;27;20023;-69
2021/07/01 10:20:42;;;;;;;21.55;10.73;;;21.00;90.60;;;;;;5121145;27;20478;-69
2021/07/01 10:23:22;;;;;;;22.15;10.23;;;21.00;90.70;;;;;;5118905;27;20489;-69
2021/07/01 10:25:53;;;;;;;16.35;8.55;;;21.00;90.70;;;;;;5128353;27;20028;-69
2021/07/01 10:28:22;;;;;;;18.52;9.30;;;21.10;90.70;;;;;;5128032;27;20495;-71
2021/07/01 10:31:10;;;;;;;20.00;9.45;;;21.10;90.30;;;;;;5122702;27;20051;-69
2021/07/01 10:33:41;;;;;;;20.85;10.70;;;21.20;90.30;;;;;;5117378;27;20074;-68
2021/07/01 10:36:23;;;;;;;24.15;10.88;;;21.20;90.30;;;;;;5123722;27;20027;-69
2021/07/01 10:38:51;;;;;;;22.90;10.18;;;21.20;90.30;;;;;;5094908;28;20054;-70
2021/07/01 10:41:31;;;;;;;23.25;10.68;;;21.10;90.20;;;;;;5122979;27;20054;-69
2021/07/01 10:43:58;;;;;;;26.95;11.35;;;21.10;90.40;;;;;;5118510;27;20032;-70
2021/07/01 10:46:42;;;;;;;20.27;10.77;;;21.20;90.40;;;;;;5125260;27;20042;-71
2021/07/01 10:49:08;;;;;;;24.67;12.20;;;21.20;90.40;;;;;;5119218;27;20485;-69
2021/07/01 10:51:35;;;;;;;27.90;11.80;;;21.20;90.40;;;;;;5121563;27;20079;-70
2021/07/01 10:54:11;;;;;;;18.25;9.77;;;21.30;90.30;;;;;;5120490;27;20031;-69
2021/07/01 10:56:44;;;;;;;24.52;11.70;;;21.30;90.20;;;;;;5124358;27;20031;-69
2021/07/01 10:59:12;;;;;;;18.15;10.57;;;21.30;90.30;;;;;;5120675;27;20042;-68
2021/07/01 11:01:44;;;;;;;24.17;9.85;;;21.30;90.50;;;;;;5115136;28;20494;-68
2021/07/01 11:04:17;;;;;;;18.83;9.87;;;21.40;90.50;;;;;;5111090;27;21359;-69
2021/07/01 11:07:04;;;;;;;20.17;11.05;;;21.50;90.50;;;;;;5118996;27;20119;-69
2021/07/01 11:09:47;;;;;;;18.75;9.68;;;21.50;90.40;;;;;;5119827;28;20023;-69
2021/07/01 11:12:13;;;;;;;20.30;11.07;;;21.50;90.50;;;;;;5119227;28;20024;-70
2021/07/01 11:14:41;;;;;;;15.55;9.50;;;21.60;90.20;;;;;;5121230;28;20482;-70
2021/07/01 11:17:10;;;;;;;22.98;10.50;;;21.60;90.30;;;;;;5109923;28;20034;-69
2021/07/01 11:19:47;;;;;;;15.98;9.30;;;21.70;90.00;;;;;;5111556;28;20035;-68
2021/07/01 11:22:14;;;;;;;18.75;10.18;;;21.70;89.90;;;;;;5118104;27;20073;-67
2021/07/01 11:24:47;;;;;;;17.65;9.55;;;21.80;90.00;;;;;;5113515;28;20377;-68
2021/07/01 11:27:24;;;;;;;17.80;9.40;;;21.90;90.00;;;;;;5115336;28;20035;-67
2021/07/01 11:29:50;;;;;;;16.70;9.57;;;21.90;89.80;;;;;;5114195;28;20036;-68
2021/07/01 11:32:25;;;;;;;19.65;10.02;;;21.90;89.80;;;;;;5073308;28;20031;-67
2021/07/01 11:35:23;;;;;;;21.45;10.32;;;21.90;89.40;;;;;;5113485;27;20054;-67
2021/07/01 11:37:59;;;;;;;17.85;9.02;;;22.00;88.90;;;;;;5099652;28;20066;-67
2021/07/01 11:40:25;;;;;;;19.23;9.10;;;22.00;88.90;;;;;;5113966;28;20101;-66
2021/07/01 11:42:51;;;;;;;20.30;10.18;;;22.10;88.80;;;;;;5116053;28;20031;-67
2021/07/01 11:45:19;;;;;;;17.85;9.35;;;22.10;88.50;;;;;;5093827;28;20391;-69
2021/07/01 11:47:46;;;;;;;14.90;8.88;;;22.00;88.70;;;;;;5117550;27;20027;-72
2021/07/01 11:50:13;;;;;;;21.20;10.50;;;22.10;88.50;;;;;;5116055;28;20383;-69
2021/07/01 11:52:41;;;;;;;19.10;9.60;;;22.10;88.10;;;;;;5110854;27;20040;-71
2021/07/01 11:55:07;;;;;;;20.17;10.48;;;22.10;88.20;;;;;;5125861;27;20067;-71
2021/07/01 11:57:33;;;;;;;18.20;10.73;;;22.20;88.60;;;;;;5123757;27;20133;-68
2021/07/01 11:59:58;;;;;;;20.20;8.70;;;22.20;88.50;;;;;;5131952;27;20023;-70
2021/07/01 12:02:25;;;;;;;22.30;10.70;;;22.30;88.00;;;;;;5116688;27;20483;-70
2021/07/01 12:04:51;;;;;;;14.13;8.15;;;22.30;87.90;;;;;;5124701;27;20381;-70
2021/07/01 12:07:23;;;;;;;17.70;8.30;;;22.30;88.00;;;;;;5116607;27;20567;-69
2021/07/01 12:09:50;;;;;;;16.13;6.50;;;22.30;87.80;;;;;;5131786;27;20126;-71
2021/07/01 12:12:25;;;;;;;15.57;8.55;;;22.40;87.60;;;;;;5124039;27;20034;-71
2021/07/01 12:15:09;;;;;;;16.27;7.88;;;22.50;88.10;;;;;;5124453;27;20053;-70
2021/07/01 12:18:04;;;;;;;13.63;6.43;;;22.50;87.60;;;;;;5115970;27;20036;-70
2021/07/01 12:20:40;;;;;;;15.18;8.70;;;22.50;87.20;;;;;;5108659;28;20062;-70
2021/07/01 12:23:11;;;;;;;15.75;8.80;;;22.60;87.10;;;;;;5109096;28;20531;-72
2021/07/01 12:25:37;;;;;;;17.27;9.13;;;22.60;87.40;;;;;;5113411;28;20031;-72
2021/07/01 12:28:06;;;;;;;13.25;8.70;;;22.60;87.40;;;;;;5114667;27;20028;-72
2021/07/01 12:30:51;;;;;;;15.88;8.63;;;22.60;87.30;;;;;;5130007;27;20399;-70
2021/07/01 12:33:45;;;;;;;15.55;7.25;;;22.70;87.10;;;;;;5124618;27;20032;-70
2021/07/01 12:36:20;;;;;;;14.73;8.77;;;22.80;86.90;;;;;;5114767;28;20526;-70
2021/07/01 12:39:08;;;;;;;14.73;8.68;;;22.80;85.90;;;;;;5104697;27;20027;-71
2021/07/01 12:41:36;;;;;;;15.20;8.32;;;22.80;85.60;;;;;;5110767;27;20038;-71
2021/07/01 12:44:03;;;;;;;15.15;7.80;;;22.80;86.00;;;;;;5117897;27;20075;-71
2021/07/01 12:46:41;;;;;;;12.60;5.93;;;22.90;86.20;;;;;;5122249;27;20018;-71
2021/07/01 12:49:26;;;;;;;18.27;9.10;;;22.90;86.20;;;;;;5119593;27;20059;-71
2021/07/01 12:51:55;;;;;;;18.15;8.85;;;23.00;86.20;;;;;;5112303;28;20097;-71
2021/07/01 12:54:27;;;;;;;20.40;7.80;;;23.00;85.70;;;;;;5124685;27;20363;-71